Impacts TAF Board
For situational awareness. Not to be used for flight planning purposes.
IDs:

KEWR - Newark Intl, NJ, US

Issued at 0533 UTC 11 Dec 2018
Updated at 0750 UTC 11 Dec 2018
Potential Impact None Slight Moderate High
Time<<12/08Z 12/09Z 12/10Z 12/11Z 12/12Z 12/13Z 12/14Z 12/15Z 12/16Z 12/17Z 12/18Z 12/19Z 12/20Z
Type PRVL PRVL PRVL PRVL
VIS >6 >6 >6 >6
CIG -- -- -- --
Cover FEW FEW FEW FEW
FltCat VFR VFR VFR VFR
WX -- -- -- --
WDir 290 290 290 290
WSpd 6 6 6 6
WGst -- -- -- --
Raw TAF
KEWR 110533Z 1106/1212 01005KT P6SM SKC
  FM111300 VRB02KT P6SM FEW030
  FM112200 23006KT P6SM FEW030
  FM120000 26006KT P6SM FEW030
  FM120300 29006KT P6SM FEW030


METAR Board
Radar Display
Forecast Discussion
For situational awareness. Not to be used for flight planning purposes.